sensor_id;sensor_type;location;lat;lon;timestamp;pressure;altitude;pressure_sealevel;temperature;humidity
40650;BME280;26342;42.826;23.992;2022-07-23T00:00:27;95616.00;;;17.94;85.63
40650;BME280;26342;42.826;23.992;2022-07-23T00:02:53;95624.13;;;17.94;85.45
40650;BME280;26342;42.826;23.992;2022-07-23T00:05:19;95624.69;;;17.91;85.54
40650;BME280;26342;42.826;23.992;2022-07-23T00:07:44;95606.97;;;17.85;86.84
40650;BME280;26342;42.826;23.992;2022-07-23T00:10:10;95620.38;;;17.90;86.68
40650;BME280;26342;42.826;23.992;2022-07-23T00:12:37;95621.28;;;17.85;86.33
40650;BME280;26342;42.826;23.992;2022-07-23T00:15:04;95623.28;;;17.80;86.49
40650;BME280;26342;42.826;23.992;2022-07-23T00:17:30;95615.47;;;17.78;86.37
40650;BME280;26342;42.826;23.992;2022-07-23T00:19:55;95614.44;;;17.74;86.15
40650;BME280;26342;42.826;23.992;2022-07-23T00:22:21;95616.97;;;17.71;86.67
40650;BME280;26342;42.826;23.992;2022-07-23T00:24:46;95612.69;;;17.65;86.80
40650;BME280;26342;42.826;23.992;2022-07-23T00:27:12;95615.78;;;17.58;87.33
40650;BME280;26342;42.826;23.992;2022-07-23T00:29:37;95609.38;;;17.54;87.75
40650;BME280;26342;42.826;23.992;2022-07-23T00:32:03;95610.88;;;17.60;88.33
40650;BME280;26342;42.826;23.992;2022-07-23T00:34:29;95603.38;;;17.57;87.93
40650;BME280;26342;42.826;23.992;2022-07-23T00:36:54;95600.44;;;17.53;87.59
40650;BME280;26342;42.826;23.992;2022-07-23T00:39:20;95605.28;;;17.56;88.20
40650;BME280;26342;42.826;23.992;2022-07-23T00:41:50;95603.25;;;17.48;88.95
40650;BME280;26342;42.826;23.992;2022-07-23T00:44:24;95597.13;;;17.43;88.73
40650;BME280;26342;42.826;23.992;2022-07-23T00:46:52;95601.97;;;17.46;88.97
40650;BME280;26342;42.826;23.992;2022-07-23T00:49:28;95596.34;;;17.42;88.98
40650;BME280;26342;42.826;23.992;2022-07-23T00:51:54;95589.94;;;17.38;88.91
40650;BME280;26342;42.826;23.992;2022-07-23T00:54:23;95590.75;;;17.39;88.95
40650;BME280;26342;42.826;23.992;2022-07-23T00:56:49;95596.13;;;17.39;89.56
40650;BME280;26342;42.826;23.992;2022-07-23T00:59:14;95603.00;;;17.31;89.73
40650;BME280;26342;42.826;23.992;2022-07-23T01:01:40;95599.75;;;17.29;89.31
40650;BME280;26342;42.826;23.992;2022-07-23T01:04:06;95593.88;;;17.27;89.48
40650;BME280;26342;42.826;23.992;2022-07-23T01:06:37;95596.88;;;17.25;89.87
40650;BME280;26342;42.826;23.992;2022-07-23T01:09:04;95577.63;;;17.13;89.80
40650;BME280;26342;42.826;23.992;2022-07-23T01:11:35;95586.69;;;17.22;90.14
40650;BME280;26342;42.826;23.992;2022-07-23T01:14:08;95594.25;;;17.20;89.64
40650;BME280;26342;42.826;23.992;2022-07-23T01:16:33;95593.75;;;17.18;90.30
40650;BME280;26342;42.826;23.992;2022-07-23T01:18:59;95590.03;;;17.14;90.28
40650;BME280;26342;42.826;23.992;2022-07-23T01:21:24;95576.03;;;17.12;90.29
40650;BME280;26342;42.826;23.992;2022-07-23T01:23:50;95579.63;;;17.08;90.56
40650;BME280;26342;42.826;23.992;2022-07-23T01:26:15;95578.28;;;17.05;91.13
40650;BME280;26342;42.826;23.992;2022-07-23T01:28:42;95580.19;;;17.05;90.85
40650;BME280;26342;42.826;23.992;2022-07-23T01:31:08;95580.47;;;17.03;91.44
40650;BME280;26342;42.826;23.992;2022-07-23T01:33:33;95575.88;;;17.03;91.69
40650;BME280;26342;42.826;23.992;2022-07-23T01:35:59;95573.28;;;16.98;91.10
40650;BME280;26342;42.826;23.992;2022-07-23T01:38:24;95575.38;;;17.01;91.12
40650;BME280;26342;42.826;23.992;2022-07-23T01:40:50;95578.44;;;16.95;91.57
40650;BME280;26342;42.826;23.992;2022-07-23T01:43:15;95569.56;;;16.94;91.53
40650;BME280;26342;42.826;23.992;2022-07-23T01:45:41;95570.84;;;16.97;92.20
40650;BME280;26342;42.826;23.992;2022-07-23T01:48:08;95582.53;;;16.92;91.94
40650;BME280;26342;42.826;23.992;2022-07-23T01:50:33;95574.75;;;16.91;92.34
40650;BME280;26342;42.826;23.992;2022-07-23T01:52:59;95575.59;;;16.86;92.54
40650;BME280;26342;42.826;23.992;2022-07-23T01:55:24;95570.81;;;16.83;92.43
40650;BME280;26342;42.826;23.992;2022-07-23T01:57:50;95555.19;;;16.80;92.12
40650;BME280;26342;42.826;23.992;2022-07-23T02:00:15;95572.97;;;16.81;92.14
40650;BME280;26342;42.826;23.992;2022-07-23T02:02:41;95571.22;;;16.71;92.80
40650;BME280;26342;42.826;23.992;2022-07-23T02:05:07;95573.06;;;16.76;92.47
40650;BME280;26342;42.826;23.992;2022-07-23T02:07:33;95574.47;;;16.68;92.68
40650;BME280;26342;42.826;23.992;2022-07-23T02:09:58;95566.75;;;16.62;92.76
40650;BME280;26342;42.826;23.992;2022-07-23T02:12:24;95581.75;;;16.68;93.04
40650;BME280;26342;42.826;23.992;2022-07-23T02:14:49;95576.63;;;16.66;93.09
40650;BME280;26342;42.826;23.992;2022-07-23T02:17:15;95572.69;;;16.59;93.04
40650;BME280;26342;42.826;23.992;2022-07-23T02:19:40;95574.09;;;16.56;93.24
40650;BME280;26342;42.826;23.992;2022-07-23T02:22:06;95570.31;;;16.57;93.30
40650;BME280;26342;42.826;23.992;2022-07-23T02:24:31;95578.16;;;16.54;93.21
40650;BME280;26342;42.826;23.992;2022-07-23T02:26:57;95585.44;;;16.53;92.98
40650;BME280;26342;42.826;23.992;2022-07-23T02:29:22;95575.53;;;16.48;92.97
40650;BME280;26342;42.826;23.992;2022-07-23T02:31:48;95575.03;;;16.46;93.23
40650;BME280;26342;42.826;23.992;2022-07-23T02:34:13;95577.28;;;16.39;93.30
40650;BME280;26342;42.826;23.992;2022-07-23T02:36:39;95576.97;;;16.41;94.02
40650;BME280;26342;42.826;23.992;2022-07-23T02:39:04;95583.75;;;16.38;93.83
40650;BME280;26342;42.826;23.992;2022-07-23T02:41:30;95574.63;;;16.34;93.89
40650;BME280;26342;42.826;23.992;2022-07-23T02:43:55;95581.34;;;16.37;94.39
40650;BME280;26342;42.826;23.992;2022-07-23T02:46:21;95587.81;;;16.36;94.81
40650;BME280;26342;42.826;23.992;2022-07-23T02:48:47;95584.09;;;16.32;94.77
40650;BME280;26342;42.826;23.992;2022-07-23T02:51:12;95577.94;;;16.26;94.80
40650;BME280;26342;42.826;23.992;2022-07-23T02:53:38;95583.59;;;16.30;95.10
40650;BME280;26342;42.826;23.992;2022-07-23T02:56:03;95588.22;;;16.24;94.75
40650;BME280;26342;42.826;23.992;2022-07-23T02:58:29;95583.41;;;16.21;94.99
40650;BME280;26342;42.826;23.992;2022-07-23T03:00:55;95598.47;;;16.22;95.12
40650;BME280;26342;42.826;23.992;2022-07-23T03:03:20;95600.06;;;16.23;95.26
40650;BME280;26342;42.826;23.992;2022-07-23T03:05:46;95598.53;;;16.17;95.06
40650;BME280;26342;42.826;23.992;2022-07-23T03:08:12;95596.13;;;16.15;95.17
40650;BME280;26342;42.826;23.992;2022-07-23T03:10:37;95600.41;;;16.16;95.24
40650;BME280;26342;42.826;23.992;2022-07-23T03:13:03;95595.94;;;16.07;96.01
40650;BME280;26342;42.826;23.992;2022-07-23T03:15:28;95600.47;;;16.11;96.19
40650;BME280;26342;42.826;23.992;2022-07-23T03:17:54;95610.50;;;16.06;95.49
40650;BME280;26342;42.826;23.992;2022-07-23T03:20:19;95616.69;;;16.06;95.66
40650;BME280;26342;42.826;23.992;2022-07-23T03:22:45;95612.69;;;16.04;95.61
40650;BME280;26342;42.826;23.992;2022-07-23T03:25:11;95616.44;;;16.03;95.86
40650;BME280;26342;42.826;23.992;2022-07-23T03:27:36;95616.44;;;16.03;96.20
40650;BME280;26342;42.826;23.992;2022-07-23T03:30:02;95628.84;;;16.04;96.11
40650;BME280;26342;42.826;23.992;2022-07-23T03:32:28;95613.25;;;16.01;95.56
40650;BME280;26342;42.826;23.992;2022-07-23T03:34:54;95613.25;;;16.01;96.07
40650;BME280;26342;42.826;23.992;2022-07-23T03:37:20;95627.38;;;16.11;95.57
40650;BME280;26342;42.826;23.992;2022-07-23T03:39:45;95621.50;;;16.09;95.48
40650;BME280;26342;42.826;23.992;2022-07-23T03:42:11;95618.28;;;16.07;95.90
40650;BME280;26342;42.826;23.992;2022-07-23T03:44:36;95616.91;;;16.10;96.00
40650;BME280;26342;42.826;23.992;2022-07-23T03:47:03;95612.56;;;16.14;96.13
40650;BME280;26342;42.826;23.992;2022-07-23T03:49:29;95614.69;;;16.17;95.83
40650;BME280;26342;42.826;23.992;2022-07-23T03:51:54;95616.03;;;16.19;95.87
40650;BME280;26342;42.826;23.992;2022-07-23T03:54:20;95616.22;;;16.23;95.38
40650;BME280;26342;42.826;23.992;2022-07-23T03:56:45;95623.09;;;16.34;94.86
40650;BME280;26342;42.826;23.992;2022-07-23T03:59:11;95614.16;;;16.39;95.03
40650;BME280;26342;42.826;23.992;2022-07-23T04:01:37;95615.13;;;16.48;94.34
40650;BME280;26342;42.826;23.992;2022-07-23T04:04:03;95620.38;;;16.58;94.69
40650;BME280;26342;42.826;23.992;2022-07-23T04:06:28;95615.00;;;16.58;93.78
40650;BME280;26342;42.826;23.992;2022-07-23T04:08:54;95612.75;;;16.65;93.81
40650;BME280;26342;42.826;23.992;2022-07-23T04:11:19;95619.13;;;16.74;93.53
40650;BME280;26342;42.826;23.992;2022-07-23T04:13:45;95621.72;;;16.85;92.43
40650;BME280;26342;42.826;23.992;2022-07-23T04:16:11;95621.28;;;16.96;91.56
40650;BME280;26342;42.826;23.992;2022-07-23T04:18:36;95626.59;;;17.01;91.64
40650;BME280;26342;42.826;23.992;2022-07-23T04:21:02;95619.47;;;17.11;91.91
40650;BME280;26342;42.826;23.992;2022-07-23T04:23:27;95612.81;;;17.22;91.10
40650;BME280;26342;42.826;23.992;2022-07-23T04:25:53;95622.88;;;17.35;91.32
40650;BME280;26342;42.826;23.992;2022-07-23T04:28:18;95608.59;;;17.35;89.70
40650;BME280;26342;42.826;23.992;2022-07-23T04:30:43;95625.13;;;17.47;89.91
40650;BME280;26342;42.826;23.992;2022-07-23T04:33:09;95620.06;;;17.59;88.90
40650;BME280;26342;42.826;23.992;2022-07-23T04:35:35;95609.28;;;17.59;88.51
40650;BME280;26342;42.826;23.992;2022-07-23T04:38:02;95619.66;;;17.71;87.83
40650;BME280;26342;42.826;23.992;2022-07-23T04:40:28;95608.69;;;17.81;87.24
40650;BME280;26342;42.826;23.992;2022-07-23T04:42:53;95605.91;;;17.86;87.44
40650;BME280;26342;42.826;23.992;2022-07-23T04:45:19;95614.81;;;18.00;86.91
40650;BME280;26342;42.826;23.992;2022-07-23T04:47:44;95609.53;;;18.09;85.55
40650;BME280;26342;42.826;23.992;2022-07-23T04:50:10;95621.53;;;18.17;84.47
40650;BME280;26342;42.826;23.992;2022-07-23T04:52:36;95621.03;;;18.28;84.18
40650;BME280;26342;42.826;23.992;2022-07-23T04:55:02;95625.94;;;18.40;83.61
40650;BME280;26342;42.826;23.992;2022-07-23T04:57:27;95618.75;;;18.49;84.83
40650;BME280;26342;42.826;23.992;2022-07-23T04:59:52;95620.94;;;18.61;83.14
40650;BME280;26342;42.826;23.992;2022-07-23T05:02:18;95623.47;;;18.71;83.18
40650;BME280;26342;42.826;23.992;2022-07-23T05:04:43;95620.25;;;18.83;82.73
40650;BME280;26342;42.826;23.992;2022-07-23T05:07:09;95617.53;;;18.96;82.44
40650;BME280;26342;42.826;23.992;2022-07-23T05:09:34;95611.91;;;19.07;82.11
40650;BME280;26342;42.826;23.992;2022-07-23T05:12:00;95610.88;;;19.16;81.85
40650;BME280;26342;42.826;23.992;2022-07-23T05:14:26;95619.63;;;19.36;81.65
40650;BME280;26342;42.826;23.992;2022-07-23T05:16:53;95615.88;;;19.45;80.21
40650;BME280;26342;42.826;23.992;2022-07-23T05:19:18;95621.28;;;19.59;80.72
40650;BME280;26342;42.826;23.992;2022-07-23T05:21:44;95615.19;;;19.76;80.23
40650;BME280;26342;42.826;23.992;2022-07-23T05:24:09;95619.28;;;19.96;80.15
40650;BME280;26342;42.826;23.992;2022-07-23T05:26:34;95612.19;;;20.08;77.86
40650;BME280;26342;42.826;23.992;2022-07-23T05:29:00;95622.09;;;20.22;77.17
40650;BME280;26342;42.826;23.992;2022-07-23T05:31:25;95614.06;;;20.39;77.77
40650;BME280;26342;42.826;23.992;2022-07-23T05:33:51;95621.50;;;20.56;77.51
40650;BME280;26342;42.826;23.992;2022-07-23T05:36:16;95620.63;;;20.78;75.63
40650;BME280;26342;42.826;23.992;2022-07-23T05:38:42;95621.13;;;20.97;76.26
40650;BME280;26342;42.826;23.992;2022-07-23T05:41:07;95612.06;;;21.19;76.67
40650;BME280;26342;42.826;23.992;2022-07-23T05:43:33;95620.25;;;21.36;76.19
40650;BME280;26342;42.826;23.992;2022-07-23T05:45:58;95608.09;;;21.51;74.53
40650;BME280;26342;42.826;23.992;2022-07-23T05:48:24;95620.22;;;21.71;73.50
40650;BME280;26342;42.826;23.992;2022-07-23T05:50:49;95627.38;;;21.93;73.64
40650;BME280;26342;42.826;23.992;2022-07-23T05:53:14;95621.13;;;22.10;71.82
40650;BME280;26342;42.826;23.992;2022-07-23T05:55:40;95622.38;;;22.29;71.95
40650;BME280;26342;42.826;23.992;2022-07-23T05:58:06;95626.28;;;22.49;71.90
40650;BME280;26342;42.826;23.992;2022-07-23T06:00:31;95620.56;;;22.72;71.54
40650;BME280;26342;42.826;23.992;2022-07-23T06:02:57;95627.06;;;22.88;70.88
40650;BME280;26342;42.826;23.992;2022-07-23T06:05:23;95622.31;;;23.06;68.98
40650;BME280;26342;42.826;23.992;2022-07-23T06:07:49;95620.22;;;23.11;66.22
40650;BME280;26342;42.826;23.992;2022-07-23T06:10:14;95613.38;;;23.26;66.56
40650;BME280;26342;42.826;23.992;2022-07-23T06:12:40;95617.09;;;23.43;65.03
40650;BME280;26342;42.826;23.992;2022-07-23T06:15:06;95615.84;;;23.61;65.37
40650;BME280;26342;42.826;23.992;2022-07-23T06:17:32;95616.19;;;23.80;65.90
40650;BME280;26342;42.826;23.992;2022-07-23T06:19:57;95612.13;;;23.99;63.37
40650;BME280;26342;42.826;23.992;2022-07-23T06:22:23;95620.63;;;24.18;65.25
40650;BME280;26342;42.826;23.992;2022-07-23T06:24:50;95610.69;;;24.34;62.05
40650;BME280;26342;42.826;23.992;2022-07-23T06:27:16;95607.84;;;24.55;60.50
40650;BME280;26342;42.826;23.992;2022-07-23T06:29:42;95610.34;;;24.85;60.34
40650;BME280;26342;42.826;23.992;2022-07-23T06:32:08;95609.00;;;25.03;62.33
40650;BME280;26342;42.826;23.992;2022-07-23T06:34:33;95603.41;;;25.24;60.08
40650;BME280;26342;42.826;23.992;2022-07-23T06:36:59;95606.50;;;25.50;58.91
40650;BME280;26342;42.826;23.992;2022-07-23T06:39:25;95611.34;;;25.69;59.47
40650;BME280;26342;42.826;23.992;2022-07-23T06:41:50;95604.38;;;25.84;58.75
40650;BME280;26342;42.826;23.992;2022-07-23T06:44:16;95591.53;;;26.00;57.68
40650;BME280;26342;42.826;23.992;2022-07-23T06:46:42;95606.53;;;26.22;55.27
40650;BME280;26342;42.826;23.992;2022-07-23T06:49:07;95595.19;;;26.36;54.98
40650;BME280;26342;42.826;23.992;2022-07-23T06:51:33;95594.97;;;26.57;55.15
40650;BME280;26342;42.826;23.992;2022-07-23T06:53:58;95595.91;;;26.80;53.91
40650;BME280;26342;42.826;23.992;2022-07-23T06:56:24;95590.03;;;26.97;54.21
40650;BME280;26342;42.826;23.992;2022-07-23T06:58:49;95592.41;;;27.15;51.53
40650;BME280;26342;42.826;23.992;2022-07-23T07:01:15;95585.38;;;27.33;53.39
40650;BME280;26342;42.826;23.992;2022-07-23T07:03:40;95581.22;;;27.59;51.94
40650;BME280;26342;42.826;23.992;2022-07-23T07:06:06;95588.94;;;27.72;49.82
40650;BME280;26342;42.826;23.992;2022-07-23T07:08:31;95594.94;;;27.97;51.63
40650;BME280;26342;42.826;23.992;2022-07-23T07:10:56;95589.13;;;28.22;47.84
40650;BME280;26342;42.826;23.992;2022-07-23T07:13:22;95581.59;;;28.38;48.23
40650;BME280;26342;42.826;23.992;2022-07-23T07:15:47;95580.34;;;28.58;47.90
40650;BME280;26342;42.826;23.992;2022-07-23T07:18:13;95579.31;;;28.67;46.71
40650;BME280;26342;42.826;23.992;2022-07-23T07:20:38;95573.47;;;28.68;47.42
40650;BME280;26342;42.826;23.992;2022-07-23T07:23:04;95575.22;;;28.80;45.16
40650;BME280;26342;42.826;23.992;2022-07-23T07:25:29;95578.22;;;28.94;44.67
40650;BME280;26342;42.826;23.992;2022-07-23T07:27:55;95573.81;;;29.16;46.19
40650;BME280;26342;42.826;23.992;2022-07-23T07:30:20;95569.47;;;29.45;46.83
40650;BME280;26342;42.826;23.992;2022-07-23T07:32:47;95561.13;;;29.64;46.48
40650;BME280;26342;42.826;23.992;2022-07-23T07:35:12;95560.63;;;29.92;46.13
40650;BME280;26342;42.826;23.992;2022-07-23T07:37:37;95558.03;;;30.07;44.74
40650;BME280;26342;42.826;23.992;2022-07-23T07:40:03;95565.81;;;30.35;45.20
40650;BME280;26342;42.826;23.992;2022-07-23T07:42:29;95567.88;;;30.45;43.79
40650;BME280;26342;42.826;23.992;2022-07-23T07:44:54;95552.72;;;30.65;43.58
40650;BME280;26342;42.826;23.992;2022-07-23T07:47:20;95549.44;;;30.97;40.82
40650;BME280;26342;42.826;23.992;2022-07-23T07:49:45;95550.28;;;31.11;39.74
40650;BME280;26342;42.826;23.992;2022-07-23T07:52:11;95552.78;;;31.31;38.92
40650;BME280;26342;42.826;23.992;2022-07-23T07:54:36;95552.09;;;31.45;39.02
40650;BME280;26342;42.826;23.992;2022-07-23T07:57:02;95549.41;;;31.62;37.40
40650;BME280;26342;42.826;23.992;2022-07-23T07:59:28;95541.16;;;31.70;35.60
40650;BME280;26342;42.826;23.992;2022-07-23T08:01:53;95551.78;;;31.71;33.49
40650;BME280;26342;42.826;23.992;2022-07-23T08:04:19;95548.69;;;31.83;33.87
40650;BME280;26342;42.826;23.992;2022-07-23T08:06:44;95542.44;;;32.01;33.38
40650;BME280;26342;42.826;23.992;2022-07-23T08:09:09;95548.00;;;32.26;32.58
40650;BME280;26342;42.826;23.992;2022-07-23T08:11:35;95538.53;;;32.23;33.40
40650;BME280;26342;42.826;23.992;2022-07-23T08:14:01;95537.00;;;32.36;31.05
40650;BME280;26342;42.826;23.992;2022-07-23T08:16:26;95543.72;;;32.71;30.77
40650;BME280;26342;42.826;23.992;2022-07-23T08:18:51;95538.97;;;32.96;30.05
40650;BME280;26342;42.826;23.992;2022-07-23T08:21:17;95528.69;;;33.08;27.58
40650;BME280;26342;42.826;23.992;2022-07-23T08:23:42;95529.81;;;33.35;27.43
40650;BME280;26342;42.826;23.992;2022-07-23T08:26:07;95524.66;;;33.41;26.25
40650;BME280;26342;42.826;23.992;2022-07-23T08:28:33;95522.97;;;33.68;25.69
40650;BME280;26342;42.826;23.992;2022-07-23T08:30:59;95523.72;;;33.76;22.67
40650;BME280;26342;42.826;23.992;2022-07-23T08:33:25;95526.00;;;33.99;22.72
40650;BME280;26342;42.826;23.992;2022-07-23T08:35:51;95536.56;;;34.18;22.66
40650;BME280;26342;42.826;23.992;2022-07-23T08:38:19;95537.28;;;34.29;21.17
40650;BME280;26342;42.826;23.992;2022-07-23T08:40:50;95536.94;;;34.20;22.40
40650;BME280;26342;42.826;23.992;2022-07-23T08:43:18;95545.97;;;34.31;22.45
40650;BME280;26342;42.826;23.992;2022-07-23T08:45:48;95537.56;;;34.49;23.18
40650;BME280;26342;42.826;23.992;2022-07-23T08:48:22;95538.59;;;34.69;22.84
40650;BME280;26342;42.826;23.992;2022-07-23T08:50:50;95535.97;;;35.00;23.25
40650;BME280;26342;42.826;23.992;2022-07-23T08:53:18;95544.66;;;34.98;22.95
40650;BME280;26342;42.826;23.992;2022-07-23T08:55:45;95543.88;;;34.98;22.70
40650;BME280;26342;42.826;23.992;2022-07-23T08:58:11;95541.56;;;34.89;24.61
40650;BME280;26342;42.826;23.992;2022-07-23T09:00:37;95544.31;;;34.96;23.88
40650;BME280;26342;42.826;23.992;2022-07-23T09:03:02;95547.78;;;35.08;25.78
40650;BME280;26342;42.826;23.992;2022-07-23T09:05:28;95541.56;;;35.31;26.25
40650;BME280;26342;42.826;23.992;2022-07-23T09:08:22;95541.56;;;35.31;24.64
40650;BME280;26342;42.826;23.992;2022-07-23T09:10:52;95539.28;;;35.60;23.58
40650;BME280;26342;42.826;23.992;2022-07-23T09:13:50;95537.63;;;35.66;23.32
40650;BME280;26342;42.826;23.992;2022-07-23T09:16:22;95534.00;;;35.69;24.63
40650;BME280;26342;42.826;23.992;2022-07-23T09:19:01;95533.03;;;35.83;24.65
40650;BME280;26342;42.826;23.992;2022-07-23T09:26:32;95529.84;;;35.84;22.80
40650;BME280;26342;42.826;23.992;2022-07-23T09:31:24;95525.78;;;35.96;23.50
40650;BME280;26342;42.826;23.992;2022-07-23T09:33:51;95524.63;;;36.20;24.08
40650;BME280;26342;42.826;23.992;2022-07-23T09:36:27;95522.09;;;36.29;27.18
40650;BME280;26342;42.826;23.992;2022-07-23T09:38:52;95517.13;;;36.44;23.91
40650;BME280;26342;42.826;23.992;2022-07-23T09:41:18;95515.63;;;36.63;23.95
40650;BME280;26342;42.826;23.992;2022-07-23T09:43:44;95523.63;;;36.61;23.75
40650;BME280;26342;42.826;23.992;2022-07-23T09:46:22;95510.44;;;36.65;23.12
40650;BME280;26342;42.826;23.992;2022-07-23T09:48:51;95514.97;;;36.55;22.02
40650;BME280;26342;42.826;23.992;2022-07-23T09:51:17;95520.28;;;36.70;22.02
40650;BME280;26342;42.826;23.992;2022-07-23T09:54:02;95507.28;;;36.63;22.99
40650;BME280;26342;42.826;23.992;2022-07-23T09:56:28;95508.31;;;36.73;21.41
40650;BME280;26342;42.826;23.992;2022-07-23T09:58:54;95507.78;;;36.58;21.65
40650;BME280;26342;42.826;23.992;2022-07-23T10:01:39;95515.50;;;36.70;22.18
40650;BME280;26342;42.826;23.992;2022-07-23T10:04:05;95516.31;;;36.94;22.69
40650;BME280;26342;42.826;23.992;2022-07-23T10:06:33;95507.13;;;36.74;20.63
40650;BME280;26342;42.826;23.992;2022-07-23T10:08:59;95502.06;;;36.92;22.28
40650;BME280;26342;42.826;23.992;2022-07-23T10:11:27;95511.75;;;36.57;21.15
40650;BME280;26342;42.826;23.992;2022-07-23T10:13:54;95506.19;;;36.80;20.83
40650;BME280;26342;42.826;23.992;2022-07-23T10:16:28;95509.09;;;36.97;20.98
40650;BME280;26342;42.826;23.992;2022-07-23T10:18:54;95497.75;;;36.87;21.17
40650;BME280;26342;42.826;23.992;2022-07-23T10:21:36;95494.38;;;37.00;21.26
40650;BME280;26342;42.826;23.992;2022-07-23T10:27:01;95500.63;;;37.04;21.06
40650;BME280;26342;42.826;23.992;2022-07-23T10:35:10;95484.69;;;37.28;20.92
40650;BME280;26342;42.826;23.992;2022-07-23T10:37:39;95476.50;;;37.40;19.55
40650;BME280;26342;42.826;23.992;2022-07-23T10:40:14;95479.00;;;37.55;19.29
40650;BME280;26342;42.826;23.992;2022-07-23T10:42:40;95472.66;;;37.54;19.78
40650;BME280;26342;42.826;23.992;2022-07-23T10:45:33;95472.56;;;37.58;20.22
40650;BME280;26342;42.826;23.992;2022-07-23T10:48:23;95477.63;;;37.63;19.64
40650;BME280;26342;42.826;23.992;2022-07-23T10:51:12;95477.50;;;37.30;19.10
40650;BME280;26342;42.826;23.992;2022-07-23T10:56:16;95472.25;;;37.12;19.94
40650;BME280;26342;42.826;23.992;2022-07-23T10:58:46;95466.75;;;37.29;21.32
40650;BME280;26342;42.826;23.992;2022-07-23T11:01:38;95467.03;;;37.38;22.66
40650;BME280;26342;42.826;23.992;2022-07-23T11:04:04;95459.47;;;37.38;20.00
40650;BME280;26342;42.826;23.992;2022-07-23T11:09:39;95460.00;;;37.30;19.83
40650;BME280;26342;42.826;23.992;2022-07-23T11:17:27;95437.63;;;37.37;20.25
40650;BME280;26342;42.826;23.992;2022-07-23T11:25:10;95438.59;;;37.27;19.93
40650;BME280;26342;42.826;23.992;2022-07-23T11:27:46;95432.19;;;37.30;19.74
40650;BME280;26342;42.826;23.992;2022-07-23T11:35:35;95419.44;;;37.32;24.37
40650;BME280;26342;42.826;23.992;2022-07-23T11:38:10;95429.06;;;37.48;20.97
40650;BME280;26342;42.826;23.992;2022-07-23T11:40:38;95431.00;;;37.67;20.41
40650;BME280;26342;42.826;23.992;2022-07-23T11:43:09;95425.88;;;37.85;20.96
40650;BME280;26342;42.826;23.992;2022-07-23T11:45:37;95415.25;;;37.96;20.40
40650;BME280;26342;42.826;23.992;2022-07-23T11:48:05;95423.78;;;38.06;20.81
40650;BME280;26342;42.826;23.992;2022-07-23T11:50:32;95428.13;;;38.23;21.72
40650;BME280;26342;42.826;23.992;2022-07-23T11:52:57;95426.22;;;38.20;19.71
40650;BME280;26342;42.826;23.992;2022-07-23T11:55:23;95427.34;;;38.22;18.73
40650;BME280;26342;42.826;23.992;2022-07-23T11:57:50;95422.94;;;38.09;21.17
40650;BME280;26342;42.826;23.992;2022-07-23T12:00:19;95421.69;;;37.93;19.90
40650;BME280;26342;42.826;23.992;2022-07-23T12:02:47;95421.31;;;37.55;19.63
40650;BME280;26342;42.826;23.992;2022-07-23T12:05:14;95421.84;;;37.30;20.09
40650;BME280;26342;42.826;23.992;2022-07-23T12:07:42;95409.13;;;37.29;19.94
40650;BME280;26342;42.826;23.992;2022-07-23T12:10:38;95408.94;;;37.40;19.32
40650;BME280;26342;42.826;23.992;2022-07-23T12:13:07;95405.22;;;37.47;19.87
40650;BME280;26342;42.826;23.992;2022-07-23T12:15:41;95396.19;;;37.59;22.02
40650;BME280;26342;42.826;23.992;2022-07-23T12:18:08;95404.53;;;37.59;19.98
40650;BME280;26342;42.826;23.992;2022-07-23T12:20:41;95398.72;;;37.53;19.91
40650;BME280;26342;42.826;23.992;2022-07-23T12:23:08;95402.66;;;37.16;20.34
40650;BME280;26342;42.826;23.992;2022-07-23T12:25:36;95397.16;;;36.93;21.22
40650;BME280;26342;42.826;23.992;2022-07-23T12:28:12;95396.34;;;36.49;20.62
40650;BME280;26342;42.826;23.992;2022-07-23T12:30:43;95397.66;;;36.44;20.91
40650;BME280;26342;42.826;23.992;2022-07-23T12:33:11;95397.84;;;36.30;20.59
40650;BME280;26342;42.826;23.992;2022-07-23T12:35:42;95387.88;;;36.32;21.56
40650;BME280;26342;42.826;23.992;2022-07-23T12:38:12;95389.03;;;36.35;20.22
40650;BME280;26342;42.826;23.992;2022-07-23T12:43:09;95384.75;;;36.30;21.77
40650;BME280;26342;42.826;23.992;2022-07-23T12:45:56;95386.50;;;36.21;22.30
40650;BME280;26342;42.826;23.992;2022-07-23T12:48:26;95385.59;;;36.27;21.22
40650;BME280;26342;42.826;23.992;2022-07-23T12:51:14;95388.31;;;36.31;22.86
40650;BME280;26342;42.826;23.992;2022-07-23T12:53:42;95387.34;;;36.41;21.17
40650;BME280;26342;42.826;23.992;2022-07-23T12:56:16;95384.19;;;36.62;20.52
40650;BME280;26342;42.826;23.992;2022-07-23T12:58:49;95385.34;;;36.65;19.81
40650;BME280;26342;42.826;23.992;2022-07-23T13:04:04;95367.09;;;36.64;18.73
40650;BME280;26342;42.826;23.992;2022-07-23T13:06:33;95370.31;;;36.62;19.38
40650;BME280;26342;42.826;23.992;2022-07-23T13:08:59;95369.94;;;36.60;20.08
40650;BME280;26342;42.826;23.992;2022-07-23T13:11:25;95358.25;;;36.69;18.40
40650;BME280;26342;42.826;23.992;2022-07-23T13:13:50;95371.03;;;36.67;18.49
40650;BME280;26342;42.826;23.992;2022-07-23T13:16:16;95364.81;;;36.59;18.51
40650;BME280;26342;42.826;23.992;2022-07-23T13:18:41;95356.31;;;36.46;19.34
40650;BME280;26342;42.826;23.992;2022-07-23T13:21:07;95361.09;;;36.46;18.82
40650;BME280;26342;42.826;23.992;2022-07-23T13:23:33;95362.31;;;36.45;18.50
40650;BME280;26342;42.826;23.992;2022-07-23T13:25:58;95351.38;;;36.34;18.75
40650;BME280;26342;42.826;23.992;2022-07-23T13:28:24;95355.41;;;36.29;19.71
40650;BME280;26342;42.826;23.992;2022-07-23T13:30:50;95349.06;;;36.29;18.80
40650;BME280;26342;42.826;23.992;2022-07-23T13:33:21;95357.03;;;36.27;19.22